createdAt,value
2023-04-27T00:00:28.656Z,69.69
2023-04-27T00:02:57.580Z,70.06
2023-04-27T00:05:27.729Z,70.03
2023-04-27T00:07:55.942Z,69.93
2023-04-27T00:10:24.091Z,69.84
2023-04-27T00:12:52.259Z,70.23
2023-04-27T00:15:20.803Z,70.40
2023-04-27T00:17:48.947Z,70.06
2023-04-27T00:20:17.247Z,70.17
2023-04-27T00:22:47.063Z,70.15
2023-04-27T00:25:15.282Z,70.08
2023-04-27T00:27:43.405Z,70.58
2023-04-27T00:30:13.459Z,70.02
2023-04-27T00:32:42.440Z,70.73
2023-04-27T00:35:11.611Z,71.59
2023-04-27T00:37:39.815Z,72.20
2023-04-27T00:40:10.399Z,72.16
2023-04-27T00:42:38.767Z,72.48
2023-04-27T00:45:10.681Z,72.81
2023-04-27T00:47:39.226Z,73.66
2023-04-27T00:50:08.804Z,73.43
2023-04-27T00:52:37.983Z,74.72
2023-04-27T00:55:07.328Z,74.66
2023-04-27T00:57:36.864Z,74.61
2023-04-27T01:00:07.157Z,74.54
2023-04-27T01:02:37.080Z,75.10
2023-04-27T01:05:05.833Z,75.86
2023-04-27T01:07:34.087Z,76.87
2023-04-27T01:10:02.186Z,77.11
2023-04-27T01:12:30.783Z,76.71
2023-04-27T01:15:00.457Z,75.51
2023-04-27T01:17:28.550Z,75.00
2023-04-27T01:19:56.901Z,73.64
2023-04-27T01:22:25.134Z,73.80
2023-04-27T01:24:54.933Z,71.21
2023-04-27T01:27:23.061Z,72.18
2023-04-27T01:29:51.263Z,70.69
2023-04-27T01:32:19.465Z,69.40
2023-04-27T01:34:47.723Z,69.26
2023-04-27T01:37:15.941Z,68.50
2023-04-27T01:39:45.528Z,68.04
2023-04-27T01:42:15.135Z,67.25
2023-04-27T01:44:43.336Z,66.86
2023-04-27T01:47:11.354Z,66.81
2023-04-27T01:49:39.578Z,66.75
2023-04-27T01:52:08.024Z,67.06
2023-04-27T01:54:36.453Z,67.70
2023-04-27T01:57:04.802Z,67.78
2023-04-27T01:59:34.436Z,68.15
2023-04-27T02:02:02.812Z,68.06
2023-04-27T02:04:31.216Z,67.05
2023-04-27T02:07:00.521Z,67.21
2023-04-27T02:09:28.979Z,67.71
2023-04-27T02:11:57.122Z,68.06
2023-04-27T02:14:25.254Z,66.83
2023-04-27T02:16:54.824Z,67.40
2023-04-27T02:19:23.156Z,66.92
2023-04-27T02:21:51.398Z,67.84
2023-04-27T02:24:19.613Z,67.63
2023-04-27T02:26:47.684Z,66.76
2023-04-27T02:29:17.065Z,66.16
2023-04-27T02:31:46.597Z,66.10
2023-04-27T02:34:16.096Z,66.79
2023-04-27T02:36:44.239Z,66.80
2023-04-27T02:39:12.953Z,66.76
2023-04-27T02:41:41.188Z,66.69
2023-04-27T02:44:09.355Z,65.60
2023-04-27T02:46:37.693Z,65.50
2023-04-27T02:49:06.192Z,65.31
2023-04-27T02:51:35.707Z,64.96
2023-04-27T02:54:04.483Z,65.55
2023-04-27T02:56:32.681Z,65.45
2023-04-27T02:59:01.221Z,65.51
2023-04-27T03:01:29.296Z,65.13
2023-04-27T03:03:57.656Z,64.59
2023-04-27T03:06:25.901Z,64.36
2023-04-27T03:08:55.380Z,64.38
2023-04-27T03:11:23.536Z,64.57
2023-04-27T03:13:51.759Z,64.84
2023-04-27T03:16:20.010Z,64.35
2023-04-27T03:18:48.220Z,63.86
2023-04-27T03:21:17.834Z,63.37
2023-04-27T03:23:46.097Z,63.72
2023-04-27T03:26:16.488Z,63.38
2023-04-27T03:28:45.500Z,63.64
2023-04-27T03:31:15.905Z,64.30
2023-04-27T03:33:44.068Z,64.37
2023-04-27T03:36:12.602Z,63.71
2023-04-27T03:38:40.747Z,63.10
2023-04-27T03:41:08.835Z,63.19
2023-04-27T03:43:38.388Z,63.45
2023-04-27T03:46:06.630Z,63.38
2023-04-27T03:48:34.757Z,63.10
2023-04-27T03:51:03.586Z,63.22
2023-04-27T03:53:32.036Z,62.66
2023-04-27T03:56:00.890Z,62.95
2023-04-27T03:58:28.879Z,62.64
2023-04-27T04:00:58.898Z,62.49
2023-04-27T04:03:27.115Z,62.17
2023-04-27T04:05:55.319Z,62.01
2023-04-27T04:08:23.507Z,61.68
2023-04-27T04:10:51.566Z,61.77
2023-04-27T04:13:20.060Z,62.11
2023-04-27T04:15:48.232Z,61.00
2023-04-27T04:18:18.036Z,60.63
2023-04-27T04:20:46.507Z,60.04
2023-04-27T04:23:14.577Z,60.55
2023-04-27T04:25:43.512Z,59.71
2023-04-27T04:28:11.511Z,59.50
2023-04-27T04:30:39.756Z,59.54
2023-04-27T04:33:09.044Z,59.09
2023-04-27T04:35:41.594Z,59.02
2023-04-27T04:38:09.778Z,58.67
2023-04-27T04:40:40.063Z,58.51
2023-04-27T04:43:08.203Z,58.55
2023-04-27T04:45:36.756Z,59.09
2023-04-27T04:48:05.284Z,58.41
2023-04-27T04:50:33.671Z,58.94
2023-04-27T04:53:03.183Z,58.69
2023-04-27T04:55:31.527Z,58.62
2023-04-27T04:57:59.621Z,58.57
2023-04-27T05:00:27.964Z,58.14
2023-04-27T05:02:56.305Z,58.11
2023-04-27T05:05:24.670Z,57.06
2023-04-27T05:07:52.777Z,57.97
2023-04-27T05:10:22.324Z,58.38
2023-04-27T05:12:50.385Z,57.88
2023-04-27T05:15:18.448Z,58.14
2023-04-27T05:17:46.742Z,57.22
2023-04-27T05:20:15.953Z,57.58
2023-04-27T05:22:44.203Z,57.60
2023-04-27T05:25:12.605Z,57.65
2023-04-27T05:27:42.862Z,57.82
2023-04-27T05:30:12.011Z,56.20
2023-04-27T05:32:40.318Z,56.74
2023-04-27T05:35:09.081Z,56.63
2023-04-27T05:37:37.278Z,56.94
2023-04-27T05:40:06.136Z,55.66
2023-04-27T05:42:34.431Z,55.01
2023-04-27T05:45:04.294Z,54.84
2023-04-27T05:47:32.438Z,55.67
2023-04-27T05:50:00.571Z,54.83
2023-04-27T05:52:31.123Z,54.38
2023-04-27T05:55:00.244Z,54.87
2023-04-27T05:57:28.597Z,55.42
2023-04-27T05:59:56.916Z,54.47
2023-04-27T06:02:26.598Z,53.72
2023-04-27T06:04:55.317Z,53.64
2023-04-27T06:07:23.427Z,54.09
2023-04-27T06:09:51.631Z,53.32
2023-04-27T06:12:19.746Z,53.54
2023-04-27T06:14:47.838Z,53.36
2023-04-27T06:17:16.417Z,53.88
2023-04-27T06:19:46.171Z,54.49
2023-04-27T06:22:14.278Z,53.73
2023-04-27T06:24:42.552Z,52.41
2023-04-27T06:27:10.990Z,53.57
2023-04-27T06:29:39.095Z,53.82
2023-04-27T06:32:07.487Z,54.29
2023-04-27T06:34:36.157Z,53.48
2023-04-27T06:37:05.557Z,53.44
2023-04-27T06:39:33.625Z,53.01
2023-04-27T06:42:01.783Z,53.49
2023-04-27T06:44:29.986Z,53.35
2023-04-27T06:46:58.303Z,53.73
2023-04-27T06:49:26.829Z,53.85
2023-04-27T06:51:54.943Z,53.70
2023-04-27T06:54:24.686Z,53.77
2023-04-27T06:56:54.740Z,53.49
2023-04-27T06:59:22.912Z,53.53
2023-04-27T07:01:51.927Z,52.72
2023-04-27T07:04:20.648Z,52.40
2023-04-27T07:06:48.972Z,52.03
2023-04-27T07:09:27.038Z,51.68
2023-04-27T07:11:59.234Z,50.73
2023-04-27T07:14:27.460Z,51.61
2023-04-27T07:16:56.572Z,51.49
2023-04-27T07:19:24.782Z,51.44
2023-04-27T07:21:53.636Z,50.87
2023-04-27T07:24:21.905Z,50.87
2023-04-27T07:26:50.092Z,50.98
2023-04-27T07:29:26.911Z,49.87
2023-04-27T07:31:56.159Z,49.71
2023-04-27T07:34:24.421Z,48.71
2023-04-27T07:36:54.471Z,48.78
2023-04-27T07:39:22.990Z,48.55
2023-04-27T07:41:51.832Z,48.36
2023-04-27T07:44:21.735Z,46.52
2023-04-27T07:46:50.333Z,46.11
2023-04-27T07:49:18.463Z,46.08
2023-04-27T07:51:46.585Z,46.03
2023-04-27T07:54:14.796Z,44.70
2023-04-27T07:56:44.220Z,44.77
2023-04-27T07:59:12.944Z,44.71
2023-04-27T08:01:42.572Z,44.37
2023-04-27T08:04:12.950Z,44.94
2023-04-27T08:06:41.554Z,45.46
2023-04-27T08:09:10.326Z,44.40
2023-04-27T08:11:38.687Z,44.47
2023-04-27T08:14:09.113Z,43.93
2023-04-27T08:16:37.279Z,43.47
2023-04-27T08:19:06.889Z,43.39
2023-04-27T08:21:35.078Z,43.12
2023-04-27T08:24:03.390Z,41.91
2023-04-27T08:26:31.640Z,41.59
2023-04-27T08:28:59.984Z,41.39
2023-04-27T08:31:29.247Z,41.77
2023-04-27T08:33:59.037Z,41.34
2023-04-27T08:36:29.238Z,42.06
2023-04-27T08:38:57.393Z,41.31
2023-04-27T08:41:26.100Z,40.94
2023-04-27T08:43:54.504Z,40.73
2023-04-27T08:46:23.249Z,39.77
2023-04-27T08:48:52.457Z,40.25
2023-04-27T08:51:21.228Z,40.20
2023-04-27T08:53:52.405Z,38.68
2023-04-27T08:56:20.805Z,38.56
2023-04-27T08:58:48.953Z,38.32
2023-04-27T09:01:17.314Z,38.65
2023-04-27T09:03:46.945Z,38.60
2023-04-27T09:06:16.129Z,37.51
2023-04-27T09:08:45.689Z,38.43
2023-04-27T09:11:15.932Z,39.10
2023-04-27T09:13:45.750Z,39.32
2023-04-27T09:16:15.383Z,39.10
2023-04-27T09:18:44.684Z,39.02
2023-04-27T09:21:23.242Z,38.77
2023-04-27T09:23:51.879Z,39.17
2023-04-27T09:26:26.068Z,37.87
2023-04-27T09:28:57.212Z,38.20
2023-04-27T09:31:33.061Z,39.32
2023-04-27T09:34:01.544Z,38.29
2023-04-27T09:36:32.414Z,38.77
2023-04-27T09:39:04.709Z,37.51
2023-04-27T09:41:34.628Z,37.47
2023-04-27T09:44:03.374Z,38.17
2023-04-27T09:46:34.950Z,38.60
2023-04-27T09:49:06.096Z,39.33
2023-04-27T09:51:35.200Z,40.45
2023-04-27T09:54:06.099Z,41.05
2023-04-27T09:56:47.306Z,40.85
2023-04-27T09:59:43.002Z,39.81
2023-04-27T10:02:24.737Z,39.48
2023-04-27T10:05:18.157Z,39.33
2023-04-27T10:07:47.405Z,39.45
2023-04-27T10:10:19.346Z,38.44
2023-04-27T10:12:59.343Z,38.16
2023-04-27T10:15:29.202Z,38.73
2023-04-27T10:17:59.206Z,37.96
2023-04-27T10:20:31.418Z,36.51
2023-04-27T10:23:00.134Z,37.87
2023-04-27T10:25:29.880Z,38.21
2023-04-27T10:28:02.000Z,38.13
2023-04-27T10:30:33.985Z,38.20
2023-04-27T10:33:08.685Z,39.37
2023-04-27T10:35:38.590Z,40.19
2023-04-27T10:38:08.718Z,41.81
2023-04-27T10:40:37.718Z,42.66
2023-04-27T10:43:14.836Z,41.33
2023-04-27T10:45:44.108Z,42.56
2023-04-27T10:48:16.950Z,41.44
2023-04-27T10:50:46.956Z,41.14
2023-04-27T10:53:16.073Z,40.43
2023-04-27T10:55:45.548Z,39.47
2023-04-27T10:58:15.042Z,38.25
2023-04-27T11:00:44.915Z,38.02
2023-04-27T11:03:17.435Z,37.34
2023-04-27T11:05:48.793Z,38.19
2023-04-27T11:08:18.764Z,38.79
2023-04-27T11:10:50.231Z,38.16
2023-04-27T11:13:22.823Z,37.14
2023-04-27T11:15:52.373Z,37.64
2023-04-27T11:18:24.900Z,37.49
2023-04-27T11:20:54.779Z,36.17
2023-04-27T11:23:28.911Z,36.51
2023-04-27T11:25:57.448Z,36.84
2023-04-27T11:28:27.287Z,37.23
2023-04-27T11:31:00.813Z,38.29
2023-04-27T11:33:29.575Z,38.69
2023-04-27T11:35:58.267Z,37.49
2023-04-27T11:38:27.686Z,36.89
2023-04-27T11:41:03.641Z,36.91
2023-04-27T11:43:33.660Z,35.26
2023-04-27T11:46:08.311Z,34.73
2023-04-27T11:48:38.960Z,34.60
2023-04-27T11:51:07.899Z,34.32
2023-04-27T11:53:37.913Z,35.21
2023-04-27T11:56:10.768Z,34.97
2023-04-27T11:58:42.123Z,34.19
2023-04-27T12:01:12.159Z,34.36
2023-04-27T12:03:40.811Z,33.57
2023-04-27T12:06:27.429Z,34.01
2023-04-27T12:08:58.921Z,33.32
2023-04-27T12:11:30.194Z,33.81
2023-04-27T12:13:59.810Z,33.32
2023-04-27T12:16:28.358Z,33.65
2023-04-27T12:18:56.791Z,33.24
2023-04-27T12:21:25.038Z,32.76
2023-04-27T12:23:53.886Z,32.14
2023-04-27T12:26:23.006Z,32.32
2023-04-27T12:28:51.103Z,31.77
2023-04-27T12:31:27.568Z,32.03
2023-04-27T12:33:55.989Z,32.44
2023-04-27T12:36:24.382Z,32.55
2023-04-27T12:38:53.028Z,32.48
2023-04-27T12:41:21.280Z,32.34
2023-04-27T12:43:49.412Z,32.69
2023-04-27T12:46:19.105Z,32.10
2023-04-27T12:48:48.744Z,32.07
2023-04-27T12:51:20.973Z,31.91
2023-04-27T12:53:49.036Z,32.32
2023-04-27T12:56:17.103Z,32.57
2023-04-27T12:58:45.859Z,33.36
2023-04-27T13:01:15.771Z,34.09
2023-04-27T13:03:44.934Z,35.30
2023-04-27T13:06:15.095Z,35.36
2023-04-27T13:08:43.370Z,37.57
2023-04-27T13:11:11.656Z,38.01
2023-04-27T13:13:40.548Z,38.81
2023-04-27T13:16:08.855Z,38.45
2023-04-27T13:18:37.224Z,37.11
2023-04-27T13:21:07.916Z,35.38
2023-04-27T13:23:37.412Z,36.25
2023-04-27T13:26:07.085Z,36.52
2023-04-27T13:28:35.528Z,37.35
2023-04-27T13:31:04.337Z,37.98
2023-04-27T13:33:34.080Z,37.59
2023-04-27T13:36:03.945Z,37.32
2023-04-27T13:38:32.069Z,38.23
2023-04-27T13:41:01.544Z,36.25
2023-04-27T13:43:29.755Z,36.25
2023-04-27T13:46:00.952Z,36.05
2023-04-27T13:48:30.501Z,35.75
2023-04-27T13:50:59.037Z,35.44
2023-04-27T13:53:27.552Z,34.76
2023-04-27T13:56:04.900Z,34.74
2023-04-27T13:58:34.830Z,34.55
2023-04-27T14:01:03.779Z,34.78
2023-04-27T14:03:32.282Z,35.07
2023-04-27T14:06:01.705Z,35.54
2023-04-27T14:08:29.930Z,34.86
2023-04-27T14:10:58.067Z,35.32
2023-04-27T14:13:26.429Z,34.53
2023-04-27T14:15:56.103Z,35.25
2023-04-27T14:18:31.908Z,35.37
2023-04-27T14:21:01.147Z,35.81
2023-04-27T14:23:29.506Z,35.48
2023-04-27T14:25:57.579Z,41.01
2023-04-27T14:28:26.166Z,40.54
2023-04-27T14:30:58.166Z,46.70
2023-04-27T14:33:27.058Z,49.18
2023-04-27T14:35:56.245Z,51.95
2023-04-27T14:38:24.912Z,52.17
2023-04-27T14:40:53.289Z,52.93
2023-04-27T14:43:22.116Z,54.45
2023-04-27T14:45:55.507Z,53.79
2023-04-27T14:48:28.995Z,53.39
2023-04-27T14:50:57.116Z,54.66
2023-04-27T14:53:29.185Z,55.44
2023-04-27T14:55:57.537Z,55.36
2023-04-27T14:58:25.990Z,55.99
2023-04-27T15:00:54.351Z,56.39
2023-04-27T15:03:23.646Z,55.50
2023-04-27T15:05:54.301Z,55.77
2023-04-27T15:08:22.963Z,55.66
2023-04-27T15:10:54.262Z,56.60
2023-04-27T15:13:23.160Z,59.55
2023-04-27T15:15:56.047Z,60.17
2023-04-27T15:18:25.487Z,60.38
2023-04-27T15:20:56.755Z,57.94
2023-04-27T15:23:26.277Z,58.03
2023-04-27T15:25:59.685Z,58.08
2023-04-27T15:28:28.782Z,57.77
2023-04-27T15:30:57.153Z,57.99
2023-04-27T15:33:27.199Z,56.92
2023-04-27T15:35:57.119Z,56.58
2023-04-27T15:38:25.397Z,56.02
2023-04-27T15:40:54.201Z,56.38
2023-04-27T15:43:22.529Z,56.70
2023-04-27T15:45:51.440Z,56.20
2023-04-27T15:48:19.792Z,56.09
2023-04-27T15:50:48.610Z,56.39
2023-04-27T15:53:18.388Z,57.34
2023-04-27T15:56:05.083Z,54.37
2023-04-27T15:58:33.862Z,52.43
2023-04-27T16:01:02.618Z,51.94
2023-04-27T16:03:31.719Z,52.05
2023-04-27T16:06:00.197Z,51.39
2023-04-27T16:08:30.790Z,50.39
2023-04-27T16:10:58.914Z,48.33
2023-04-27T16:13:28.557Z,45.33
2023-04-27T16:15:57.244Z,44.29
2023-04-27T16:18:26.775Z,44.59
2023-04-27T16:20:54.856Z,44.67
2023-04-27T16:23:24.378Z,43.52
2023-04-27T16:25:53.875Z,44.27
2023-04-27T16:28:22.120Z,43.58
2023-04-27T16:30:51.536Z,44.03
2023-04-27T16:33:21.348Z,43.55
2023-04-27T16:35:50.069Z,43.16
2023-04-27T16:38:18.085Z,42.77
2023-04-27T16:40:46.323Z,43.28
2023-04-27T16:43:15.961Z,43.80
2023-04-27T16:45:44.267Z,43.88
2023-04-27T16:48:12.582Z,44.50
2023-04-27T16:50:41.003Z,45.37
2023-04-27T16:53:10.996Z,45.87
2023-04-27T16:55:39.001Z,45.73
2023-04-27T16:58:08.288Z,46.58
2023-04-27T17:00:38.285Z,46.83
2023-04-27T17:03:06.662Z,46.86
2023-04-27T17:05:35.289Z,46.90
2023-04-27T17:08:05.207Z,46.81
2023-04-27T17:10:36.991Z,46.97
2023-04-27T17:13:05.970Z,47.36
2023-04-27T17:15:34.154Z,47.71
2023-04-27T17:18:05.888Z,47.96
2023-04-27T17:20:33.968Z,47.94
2023-04-27T17:23:02.207Z,48.00
2023-04-27T17:25:30.464Z,48.16
2023-04-27T17:28:00.739Z,47.80
2023-04-27T17:30:29.724Z,47.58
2023-04-27T17:32:57.901Z,47.55
2023-04-27T17:35:27.667Z,47.87
2023-04-27T17:37:56.056Z,48.48
2023-04-27T17:40:24.340Z,48.37
2023-04-27T17:42:54.708Z,48.35
2023-04-27T17:45:23.101Z,47.88
2023-04-27T17:47:51.997Z,48.61
2023-04-27T17:50:20.185Z,47.92
2023-04-27T17:52:51.243Z,47.77
2023-04-27T17:55:19.709Z,47.86
2023-04-27T17:57:47.826Z,47.02
2023-04-27T18:00:18.220Z,47.37
2023-04-27T18:02:48.407Z,47.22
2023-04-27T18:05:16.978Z,47.99
2023-04-27T18:07:46.265Z,47.74
2023-04-27T18:10:15.861Z,48.05
2023-04-27T18:12:44.116Z,48.25
2023-04-27T18:15:12.496Z,49.27
2023-04-27T18:17:40.533Z,48.79
2023-04-27T18:20:10.423Z,48.77
2023-04-27T18:22:40.343Z,48.32
2023-04-27T18:25:10.435Z,48.36
2023-04-27T18:27:40.414Z,48.62
2023-04-27T18:30:09.632Z,49.07
2023-04-27T18:32:38.306Z,48.12
2023-04-27T18:35:07.286Z,48.15
2023-04-27T18:37:35.494Z,48.39
2023-04-27T18:40:07.104Z,47.94
2023-04-27T18:42:35.544Z,47.70
2023-04-27T18:45:05.911Z,48.13
2023-04-27T18:47:34.201Z,48.03
2023-04-27T18:50:02.410Z,48.36
2023-04-27T18:52:30.755Z,48.10
2023-04-27T18:54:59.049Z,48.43
2023-04-27T18:57:27.532Z,49.40
2023-04-27T18:59:56.772Z,49.65
2023-04-27T19:02:26.879Z,49.45
2023-04-27T19:05:11.534Z,50.29
2023-04-27T19:07:41.161Z,49.84
2023-04-27T19:10:10.801Z,50.44
2023-04-27T19:12:39.008Z,50.35
2023-04-27T19:15:08.492Z,50.17
2023-04-27T19:17:38.542Z,50.39
2023-04-27T19:20:08.582Z,50.87
2023-04-27T19:22:37.270Z,50.57
2023-04-27T19:25:06.134Z,49.82
2023-04-27T19:27:34.448Z,49.83
2023-04-27T19:30:04.523Z,48.83
2023-04-27T19:32:34.558Z,48.55
2023-04-27T19:35:04.820Z,50.17
2023-04-27T19:37:33.248Z,49.26
2023-04-27T19:40:02.167Z,50.03
2023-04-27T19:42:31.774Z,50.54
2023-04-27T19:45:01.035Z,50.92
2023-04-27T19:47:29.478Z,51.42
2023-04-27T19:49:58.636Z,51.90
2023-04-27T19:52:29.414Z,51.49
2023-04-27T19:54:57.908Z,51.47
2023-04-27T19:57:27.370Z,51.23
2023-04-27T19:59:55.724Z,51.64
2023-04-27T20:02:24.104Z,51.67
2023-04-27T20:04:55.527Z,51.26
2023-04-27T20:07:23.795Z,51.08
2023-04-27T20:09:58.244Z,51.58
2023-04-27T20:12:47.547Z,51.67
2023-04-27T20:15:15.964Z,51.99
2023-04-27T20:17:45.826Z,51.72
2023-04-27T20:20:13.942Z,51.36
2023-04-27T20:22:42.200Z,51.69
2023-04-27T20:25:15.116Z,51.79
2023-04-27T20:27:43.368Z,51.31
2023-04-27T20:30:12.078Z,51.06
2023-04-27T20:32:40.534Z,50.75
2023-04-27T20:35:11.412Z,51.17
2023-04-27T20:37:42.013Z,51.11
2023-04-27T20:40:14.559Z,51.38
2023-04-27T20:42:43.919Z,51.96
2023-04-27T20:45:13.366Z,52.08
2023-04-27T20:47:41.985Z,52.10
2023-04-27T20:50:13.946Z,52.67
2023-04-27T20:52:42.761Z,52.48
2023-04-27T20:55:12.294Z,52.47
2023-04-27T20:57:40.593Z,52.69
2023-04-27T21:00:10.324Z,52.94
2023-04-27T21:02:38.665Z,52.96
2023-04-27T21:05:07.026Z,52.96
2023-04-27T21:07:35.425Z,52.86
2023-04-27T21:10:06.308Z,53.19
2023-04-27T21:12:36.049Z,53.72
2023-04-27T21:15:04.352Z,53.71
2023-04-27T21:17:32.574Z,53.79
2023-04-27T21:20:00.818Z,54.05
2023-04-27T21:22:28.975Z,53.75
2023-04-27T21:24:57.149Z,53.68
2023-04-27T21:27:25.304Z,53.95
2023-04-27T21:29:54.895Z,53.73
2023-04-27T21:32:22.927Z,53.71
2023-04-27T21:34:51.823Z,53.65
2023-04-27T21:37:19.873Z,53.36
2023-04-27T21:39:48.070Z,52.71
2023-04-27T21:42:16.818Z,52.91
2023-04-27T21:44:44.928Z,52.59
2023-04-27T21:47:32.755Z,53.03
2023-04-27T21:50:00.939Z,53.14
2023-04-27T21:52:29.094Z,52.83
2023-04-27T21:54:59.722Z,53.29
2023-04-27T21:57:28.847Z,53.43
2023-04-27T21:59:56.968Z,53.62
2023-04-27T22:02:26.686Z,54.27
2023-04-27T22:04:54.855Z,54.80
2023-04-27T22:07:24.771Z,55.63
2023-04-27T22:09:53.722Z,55.66
2023-04-27T22:12:21.789Z,56.28
2023-04-27T22:14:49.876Z,56.37
2023-04-27T22:17:18.493Z,55.38
2023-04-27T22:19:47.957Z,56.06
2023-04-27T22:22:16.097Z,55.99
2023-04-27T22:24:44.223Z,56.64
2023-04-27T22:27:12.832Z,57.38
2023-04-27T22:29:41.083Z,57.31
2023-04-27T22:32:09.271Z,57.00
2023-04-27T22:34:38.259Z,57.60
2023-04-27T22:37:10.129Z,57.29
2023-04-27T22:39:38.445Z,57.59
2023-04-27T22:42:06.803Z,57.89
2023-04-27T22:44:34.801Z,57.88
2023-04-27T22:47:04.619Z,57.34
2023-04-27T22:49:34.372Z,57.38
2023-04-27T22:52:03.752Z,57.37
2023-04-27T22:54:33.193Z,57.63
2023-04-27T22:57:02.547Z,57.40
2023-04-27T22:59:30.928Z,56.64
2023-04-27T23:01:59.077Z,56.76
2023-04-27T23:04:29.157Z,56.20
2023-04-27T23:06:59.386Z,55.88
2023-04-27T23:09:27.818Z,53.96
2023-04-27T23:11:58.951Z,53.84
2023-04-27T23:14:27.882Z,53.12
2023-04-27T23:16:56.812Z,53.28
2023-04-27T23:19:24.943Z,54.09
2023-04-27T23:21:53.044Z,55.62
2023-04-27T23:24:21.063Z,56.88
2023-04-27T23:26:49.297Z,57.22
2023-04-27T23:29:19.032Z,57.88
2023-04-27T23:31:47.237Z,56.30
2023-04-27T23:34:16.507Z,57.17
2023-04-27T23:36:44.703Z,57.11
2023-04-27T23:39:12.712Z,57.64
2023-04-27T23:41:41.033Z,57.36
2023-04-27T23:44:09.140Z,57.28
2023-04-27T23:46:38.846Z,57.15
2023-04-27T23:49:07.004Z,55.89
2023-04-27T23:51:35.149Z,55.76
2023-04-27T23:54:03.600Z,55.83
2023-04-27T23:56:31.748Z,55.86
2023-04-27T23:58:59.755Z,54.83
